ロングイェールビーン の空港の天気 - METARとTAF

スヴァールバル空港 ( ENSB / LYR ) - スヴァールバル諸島・ヤンマイエン島 ロングイェールビーン
飛行場実況気象(Metar)
観測時間02/26 03:50 CET (02/26 02:50 UTC)
風向・風速南西 9m/s
視程10km以上
天気現象
少しの雲 雲底高度 760m
気温4℃
湿度70%
気圧1037hPa
METARENSB 260250Z 22017KT 9999 FEW025 04/M01 Q1037 RMK WIND 1400FT 22028KT
過去の天気等 Google飛行場航空写真 Wunderground天気予報

過去48時間のMETAR

飛行場予報(TAF)
発表時間: -
26日1時 CET ~ 27日1時 CET に一時的に
風向・風速南西 14m/s 瞬間風速 21m/s
26日16時 CET ~ 27日1時 CET に一時的に
視程4,000m
天気現象弱い雪雨
全天を覆う雲 鉛直視程 370m
TAF ENSB 2600/2624 22018G28KT 9999 FEW015 BKN030
TEMPO 2600/2624 22028G40KT
TEMPO 2615/2624 4000 -SNRA VV012